createdAt,value
2019-05-17T00:01:42.156Z,29.10
2019-05-17T00:04:17.396Z,31.42
2019-05-17T00:06:52.708Z,31.68
2019-05-17T00:09:28.048Z,32.13
2019-05-17T00:12:03.476Z,35.50
2019-05-17T00:14:38.776Z,34.95
2019-05-17T00:17:14.122Z,37.05
2019-05-17T00:19:49.364Z,37.98
2019-05-17T00:22:26.991Z,36.05
2019-05-17T00:25:02.450Z,38.38
2019-05-17T00:27:37.912Z,39.10
2019-05-17T00:30:13.429Z,40.75
2019-05-17T00:32:49.048Z,42.33
2019-05-17T00:35:26.635Z,44.50
2019-05-17T00:38:01.276Z,42.27
2019-05-17T00:40:36.868Z,48.80
2019-05-17T00:43:12.300Z,49.25
2019-05-17T00:45:47.506Z,49.08
2019-05-17T00:48:22.883Z,55.78
2019-05-17T00:51:02.211Z,54.77
2019-05-17T00:53:36.251Z,53.85
2019-05-17T00:56:11.509Z,53.48
2019-05-17T00:58:47.724Z,55.63
2019-05-17T01:01:23.150Z,55.28
2019-05-17T01:03:58.483Z,54.95
2019-05-17T01:06:33.833Z,56.10
2019-05-17T01:09:10.739Z,56.30
2019-05-17T01:11:47.336Z,59.85
2019-05-17T01:14:23.915Z,60.12
2019-05-17T01:16:59.093Z,58.87
2019-05-17T01:19:36.427Z,59.20
2019-05-17T01:22:11.397Z,60.98
2019-05-17T01:24:46.687Z,59.45
2019-05-17T01:27:22.051Z,61.65
2019-05-17T01:29:57.395Z,61.13
2019-05-17T01:32:32.635Z,61.73
2019-05-17T01:35:08.444Z,63.75
2019-05-17T01:37:43.670Z,57.17
2019-05-17T01:40:20.448Z,56.30
2019-05-17T01:42:58.033Z,61.28
2019-05-17T01:45:32.668Z,56.60
2019-05-17T01:48:09.018Z,57.83
2019-05-17T01:50:46.370Z,60.23
2019-05-17T01:53:21.075Z,60.58
2019-05-17T01:55:56.845Z,55.30
2019-05-17T01:58:32.202Z,61.90
2019-05-17T02:01:07.829Z,56.80
2019-05-17T02:03:44.097Z,56.50
2019-05-17T02:06:19.441Z,56.70
2019-05-17T02:08:56.910Z,59.40
2019-05-17T02:11:32.233Z,61.33
2019-05-17T02:14:07.516Z,61.77
2019-05-17T02:16:42.780Z,61.95
2019-05-17T02:19:18.223Z,55.33
2019-05-17T02:21:53.639Z,62.20
2019-05-17T02:24:28.897Z,59.70
2019-05-17T02:27:04.230Z,57.83
2019-05-17T02:29:39.608Z,58.80
2019-05-17T02:32:14.865Z,61.70
2019-05-17T02:34:52.959Z,59.03
2019-05-17T02:37:27.080Z,62.38
2019-05-17T02:40:07.695Z,63.25
2019-05-17T02:42:42.683Z,63.23
2019-05-17T02:45:16.854Z,60.25
2019-05-17T02:47:53.696Z,60.67
2019-05-17T02:50:29.042Z,56.95
2019-05-17T02:53:04.956Z,59.38
2019-05-17T02:55:43.345Z,55.20
2019-05-17T02:58:17.110Z,60.80
2019-05-17T03:00:53.314Z,56.77
2019-05-17T03:03:28.668Z,55.23
2019-05-17T03:06:03.806Z,62.30
2019-05-17T03:08:39.318Z,58.23
2019-05-17T03:11:14.626Z,58.58
2019-05-17T03:13:52.406Z,66.33
2019-05-17T03:16:26.734Z,60.58
2019-05-17T03:19:04.186Z,57.17
2019-05-17T03:21:39.111Z,61.60
2019-05-17T03:24:14.546Z,62.40
2019-05-17T03:26:52.599Z,62.25
2019-05-17T03:29:26.745Z,63.48
2019-05-17T03:32:08.109Z,68.83
2019-05-17T03:34:44.514Z,63.33
2019-05-17T03:37:16.925Z,64.20
2019-05-17T03:39:53.585Z,65.87
2019-05-17T03:42:29.101Z,63.48
2019-05-17T03:45:04.933Z,68.75
2019-05-17T03:47:43.918Z,62.93
2019-05-17T03:50:17.330Z,66.80
2019-05-17T03:52:53.515Z,63.45
2019-05-17T03:55:32.791Z,68.20
2019-05-17T03:58:06.067Z,66.70
2019-05-17T04:00:42.842Z,72.58
2019-05-17T04:03:18.283Z,70.78
2019-05-17T04:05:53.702Z,65.57
2019-05-17T04:08:28.981Z,70.92
2019-05-17T04:11:20.483Z,70.15
2019-05-17T04:13:43.031Z,68.55
2019-05-17T04:16:18.453Z,69.58
2019-05-17T04:18:53.837Z,68.87
2019-05-17T04:21:29.006Z,71.02
2019-05-17T04:24:04.230Z,70.12
2019-05-17T04:26:43.444Z,71.57
2019-05-17T04:29:16.511Z,72.30
2019-05-17T04:31:54.299Z,67.53
2019-05-17T04:34:28.914Z,71.07
2019-05-17T04:37:04.631Z,76.40
2019-05-17T04:39:42.932Z,73.30
2019-05-17T04:42:17.105Z,70.22
2019-05-17T04:44:52.858Z,71.37
2019-05-17T04:47:28.229Z,75.75
2019-05-17T04:50:04.194Z,74.03
2019-05-17T04:52:42.639Z,78.97
2019-05-17T04:55:23.071Z,81.92
2019-05-17T04:57:58.275Z,82.02
2019-05-17T05:00:34.318Z,79.80
2019-05-17T05:03:12.601Z,86.50
2019-05-17T05:05:46.732Z,78.55
2019-05-17T05:08:22.567Z,76.20
2019-05-17T05:10:57.962Z,78.28
2019-05-17T05:13:33.698Z,81.87
2019-05-17T05:16:09.996Z,86.75
2019-05-17T05:18:45.480Z,81.37
2019-05-17T05:21:23.006Z,74.97
2019-05-17T05:23:57.733Z,76.95
2019-05-17T05:26:33.003Z,77.25
2019-05-17T05:29:09.093Z,79.30
2019-05-17T05:31:45.288Z,78.90
2019-05-17T05:34:21.581Z,70.92
2019-05-17T05:36:56.988Z,70.83
2019-05-17T05:39:32.243Z,77.35
2019-05-17T05:42:10.605Z,70.00
2019-05-17T05:44:44.423Z,66.95
2019-05-17T05:47:22.054Z,69.77
2019-05-17T05:49:56.683Z,69.03
2019-05-17T05:52:32.382Z,67.58
2019-05-17T05:55:09.139Z,69.32
2019-05-17T05:57:44.426Z,62.27
2019-05-17T06:00:21.986Z,65.57
2019-05-17T06:03:11.951Z,62.55
2019-05-17T06:05:46.552Z,67.67
2019-05-17T06:08:23.041Z,62.48
2019-05-17T06:10:58.398Z,58.23
2019-05-17T06:13:33.610Z,56.50
2019-05-17T06:16:08.941Z,62.88
2019-05-17T06:18:45.612Z,58.45
2019-05-17T06:21:22.649Z,63.55
2019-05-17T06:23:57.994Z,58.60
2019-05-17T06:26:33.300Z,60.70
2019-05-17T06:29:14.631Z,58.35
2019-05-17T06:31:51.879Z,56.13
2019-05-17T06:34:26.769Z,55.73
2019-05-17T06:37:02.396Z,58.70
2019-05-17T06:39:37.830Z,57.48
2019-05-17T06:42:13.275Z,57.83
2019-05-17T06:44:48.539Z,54.70
2019-05-17T06:47:24.029Z,55.55
2019-05-17T06:49:59.397Z,55.33
2019-05-17T06:52:36.279Z,54.38
2019-05-17T06:55:12.822Z,57.23
2019-05-17T06:57:52.819Z,50.95
2019-05-17T07:00:29.911Z,48.70
2019-05-17T07:03:05.354Z,47.55
2019-05-17T07:05:45.477Z,43.68
2019-05-17T07:08:20.867Z,41.50
2019-05-17T07:10:56.263Z,39.65
2019-05-17T07:13:31.521Z,39.73
2019-05-17T07:16:06.819Z,36.35
2019-05-17T07:18:42.053Z,32.50
2019-05-17T07:21:17.427Z,29.65
2019-05-17T07:23:52.656Z,32.83
2019-05-17T07:26:30.083Z,28.40
2019-05-17T07:29:04.899Z,27.22
2019-05-17T07:31:40.597Z,27.80
2019-05-17T07:34:15.847Z,28.17
2019-05-17T07:36:51.121Z,26.02
2019-05-17T07:39:26.441Z,26.73
2019-05-17T07:42:02.286Z,27.65
2019-05-17T07:44:37.526Z,25.02
2019-05-17T07:47:12.813Z,28.45
2019-05-17T07:49:49.450Z,28.42
2019-05-17T07:52:24.772Z,28.60
2019-05-17T07:55:02.429Z,27.15
2019-05-17T07:57:37.367Z,29.82
2019-05-17T08:00:12.877Z,28.32
2019-05-17T08:02:50.467Z,28.00
2019-05-17T08:05:25.194Z,29.07
2019-05-17T08:08:00.552Z,28.83
2019-05-17T08:10:35.850Z,29.92
2019-05-17T08:13:25.884Z,32.48
2019-05-17T08:15:50.182Z,31.93
2019-05-17T08:18:25.746Z,30.40
2019-05-17T08:21:00.971Z,29.05
2019-05-17T08:23:36.223Z,28.73
2019-05-17T08:26:11.555Z,26.15
2019-05-17T08:28:46.987Z,26.75
2019-05-17T08:31:22.417Z,24.92
2019-05-17T08:34:00.053Z,25.48
2019-05-17T08:36:35.571Z,26.23
2019-05-17T08:39:13.644Z,28.07
2019-05-17T08:41:49.748Z,26.45
2019-05-17T08:44:25.277Z,27.82
2019-05-17T08:47:00.444Z,26.48
2019-05-17T08:49:37.010Z,27.40
2019-05-17T08:52:12.403Z,26.55
2019-05-17T08:54:49.611Z,26.30
2019-05-17T08:57:24.620Z,24.67
2019-05-17T09:00:00.767Z,24.47
2019-05-17T09:02:36.859Z,23.67
2019-05-17T09:05:13.941Z,24.87
2019-05-17T09:07:49.406Z,23.25
2019-05-17T09:10:24.829Z,24.40
2019-05-17T09:13:00.143Z,25.77
2019-05-17T09:15:36.424Z,25.72
2019-05-17T09:18:12.038Z,26.07
2019-05-17T09:20:49.331Z,26.05
2019-05-17T09:23:24.227Z,24.87
2019-05-17T09:25:59.724Z,25.52
2019-05-17T09:28:36.264Z,24.82
2019-05-17T09:31:11.560Z,24.95
2019-05-17T09:33:46.819Z,25.90
2019-05-17T09:36:22.208Z,27.62
2019-05-17T09:38:57.382Z,26.95
2019-05-17T09:41:32.664Z,26.42
2019-05-17T09:44:15.561Z,26.23
2019-05-17T09:46:45.034Z,26.37
2019-05-17T09:49:20.602Z,26.00
2019-05-17T09:51:55.886Z,26.50
2019-05-17T09:54:41.681Z,25.23
2019-05-17T09:57:09.876Z,23.57
2019-05-17T09:59:44.951Z,24.95
2019-05-17T10:02:20.479Z,23.87
2019-05-17T10:04:55.976Z,25.25
2019-05-17T10:07:31.251Z,24.18
2019-05-17T10:10:07.292Z,21.85
2019-05-17T10:12:42.589Z,20.70
2019-05-17T10:15:20.768Z,19.62
2019-05-17T10:17:56.015Z,17.52
2019-05-17T10:20:31.335Z,18.23
2019-05-17T10:23:06.547Z,18.00
2019-05-17T10:25:41.933Z,17.10
2019-05-17T10:28:17.263Z,17.10
2019-05-17T10:30:52.630Z,17.80
2019-05-17T10:33:29.450Z,18.02
2019-05-17T10:36:04.892Z,17.60
2019-05-17T10:38:40.104Z,17.07
2019-05-17T10:41:15.438Z,16.07
2019-05-17T10:43:50.796Z,17.85
2019-05-17T10:46:26.113Z,14.47
2019-05-17T10:49:01.440Z,13.98
2019-05-17T10:51:36.736Z,12.40
2019-05-17T10:54:12.066Z,13.13
2019-05-17T10:56:50.213Z,12.10
2019-05-17T10:59:25.590Z,10.55
2019-05-17T11:02:09.993Z,10.72
2019-05-17T11:04:45.504Z,10.03
2019-05-17T11:07:21.562Z,11.65
2019-05-17T11:09:56.730Z,10.88
2019-05-17T11:12:32.180Z,11.33
2019-05-17T11:15:26.443Z,9.93
2019-05-17T11:18:02.007Z,10.75
2019-05-17T11:20:38.139Z,9.50
2019-05-17T11:23:38.570Z,10.13
2019-05-17T11:26:13.861Z,9.33
2019-05-17T11:28:52.813Z,9.23
2019-05-17T11:31:31.076Z,10.03
2019-05-17T11:34:07.169Z,9.30
2019-05-17T11:36:42.626Z,9.63
2019-05-17T11:39:18.903Z,9.20
2019-05-17T11:41:54.113Z,9.48
2019-05-17T11:44:29.409Z,8.98
2019-05-17T11:47:04.811Z,10.93
2019-05-17T11:49:40.119Z,10.28
2019-05-17T11:52:15.412Z,9.98
2019-05-17T11:54:50.730Z,10.95
2019-05-17T11:57:26.049Z,10.18
2019-05-17T12:00:01.349Z,9.33
2019-05-17T12:02:36.598Z,8.95
2019-05-17T12:05:12.231Z,8.33
2019-05-17T12:07:58.856Z,7.72
2019-05-17T12:10:37.072Z,7.85
2019-05-17T12:13:12.315Z,9.88
2019-05-17T12:15:47.686Z,8.80
2019-05-17T12:18:23.278Z,11.08
2019-05-17T12:20:58.637Z,10.63
2019-05-17T12:23:33.991Z,10.35
2019-05-17T12:26:09.446Z,9.68
2019-05-17T12:28:48.372Z,10.43
2019-05-17T12:31:23.596Z,9.60
2019-05-17T12:33:58.790Z,9.20
2019-05-17T12:36:34.420Z,9.00
2019-05-17T12:39:09.704Z,7.75
2019-05-17T12:41:44.942Z,8.80
2019-05-17T12:44:20.172Z,8.45
2019-05-17T12:46:55.479Z,8.85
2019-05-17T12:49:30.879Z,8.63
2019-05-17T12:52:06.107Z,7.78
2019-05-17T12:54:41.419Z,8.13
2019-05-17T12:57:17.138Z,8.30
2019-05-17T12:59:52.405Z,8.50
2019-05-17T13:02:27.635Z,7.78
2019-05-17T13:05:02.929Z,8.35
2019-05-17T13:07:40.423Z,8.58
2019-05-17T13:10:15.001Z,8.03
2019-05-17T13:12:50.423Z,8.30
2019-05-17T13:15:25.701Z,7.60
2019-05-17T13:18:01.030Z,10.70
2019-05-17T13:20:39.557Z,8.15
2019-05-17T13:23:15.909Z,9.03
2019-05-17T13:25:51.109Z,8.88
2019-05-17T13:28:26.464Z,8.78
2019-05-17T13:31:01.810Z,9.63
2019-05-17T13:33:37.177Z,10.68
2019-05-17T13:36:12.548Z,11.50
2019-05-17T13:38:47.797Z,11.97
2019-05-17T13:41:23.170Z,10.48
2019-05-17T13:43:58.551Z,11.35
2019-05-17T13:46:35.479Z,10.75
2019-05-17T13:49:11.934Z,10.98
2019-05-17T13:51:47.330Z,13.60
2019-05-17T13:54:22.591Z,10.93
2019-05-17T13:56:57.880Z,10.95
2019-05-17T13:59:33.168Z,11.88
2019-05-17T14:02:08.784Z,12.65
2019-05-17T14:04:44.311Z,12.50
2019-05-17T14:07:19.796Z,11.30
2019-05-17T14:09:55.172Z,11.78
2019-05-17T14:12:36.202Z,12.10
2019-05-17T14:15:26.093Z,12.70
2019-05-17T14:18:02.135Z,12.28
2019-05-17T14:20:37.720Z,10.28
2019-05-17T14:23:13.249Z,9.58
2019-05-17T14:25:48.683Z,10.20
2019-05-17T14:28:23.979Z,9.00
2019-05-17T14:30:59.288Z,10.15
2019-05-17T14:33:34.589Z,10.78
2019-05-17T14:36:10.071Z,9.98
2019-05-17T14:38:45.376Z,11.60
2019-05-17T14:41:21.776Z,10.13
2019-05-17T14:43:57.089Z,10.40
2019-05-17T14:46:32.475Z,11.00
2019-05-17T14:49:07.815Z,11.68
2019-05-17T14:51:43.343Z,11.18
2019-05-17T14:54:18.584Z,12.55
2019-05-17T14:56:53.823Z,10.82
2019-05-17T14:59:29.087Z,11.63
2019-05-17T15:02:05.539Z,11.60
2019-05-17T15:04:42.583Z,12.15
2019-05-17T15:07:17.904Z,12.80
2019-05-17T15:09:54.062Z,10.65
2019-05-17T15:12:29.304Z,12.43
2019-05-17T15:15:04.624Z,11.65
2019-05-17T15:17:39.934Z,11.33
2019-05-17T15:20:15.509Z,10.82
2019-05-17T15:22:50.862Z,11.38
2019-05-17T15:25:26.121Z,11.05
2019-05-17T15:28:02.067Z,11.57
2019-05-17T15:30:37.377Z,12.05
2019-05-17T15:33:12.697Z,10.53
2019-05-17T15:35:47.918Z,11.33
2019-05-17T15:38:23.418Z,13.03
2019-05-17T15:40:58.791Z,12.60
2019-05-17T15:43:34.657Z,12.55
2019-05-17T15:46:14.595Z,13.50
2019-05-17T15:48:49.934Z,12.85
2019-05-17T15:51:25.141Z,12.23
2019-05-17T15:54:00.757Z,12.82
2019-05-17T15:56:35.957Z,13.22
2019-05-17T15:59:11.299Z,13.53
2019-05-17T16:01:46.720Z,12.25
2019-05-17T16:04:21.993Z,13.20
2019-05-17T16:06:57.490Z,14.23
2019-05-17T16:09:32.806Z,13.88
2019-05-17T16:12:08.246Z,13.03
2019-05-17T16:14:43.553Z,13.28
2019-05-17T16:17:18.875Z,13.90
2019-05-17T16:19:54.389Z,13.68
2019-05-17T16:22:30.272Z,14.45
2019-05-17T16:25:05.818Z,14.25
2019-05-17T16:27:41.093Z,16.32
2019-05-17T16:30:16.697Z,17.30
2019-05-17T16:32:51.997Z,16.95
2019-05-17T16:35:27.325Z,17.37
2019-05-17T16:38:02.604Z,15.20
2019-05-17T16:40:37.893Z,15.83
2019-05-17T16:43:18.265Z,17.42
2019-05-17T16:45:50.214Z,18.12
2019-05-17T16:48:25.368Z,17.75
2019-05-17T16:51:00.600Z,19.87
2019-05-17T16:53:35.862Z,17.60
2019-05-17T16:56:11.250Z,19.00
2019-05-17T16:58:46.564Z,20.57
2019-05-17T17:01:26.160Z,20.02
2019-05-17T17:04:01.365Z,20.23
2019-05-17T17:06:36.691Z,20.05
2019-05-17T17:09:11.998Z,20.55
2019-05-17T17:11:47.240Z,21.97
2019-05-17T17:14:22.610Z,22.10
2019-05-17T17:17:12.340Z,21.95
2019-05-17T17:19:46.531Z,23.10
2019-05-17T17:22:21.923Z,22.40
2019-05-17T17:24:57.211Z,23.25
2019-05-17T17:27:32.606Z,21.73
2019-05-17T17:30:10.843Z,21.70
2019-05-17T17:32:46.268Z,22.58
2019-05-17T17:35:21.763Z,21.62
2019-05-17T17:37:57.243Z,25.02
2019-05-17T17:40:32.534Z,24.67
2019-05-17T17:43:08.013Z,24.15
2019-05-17T17:45:43.232Z,24.50
2019-05-17T17:48:18.553Z,25.37
2019-05-17T17:50:53.842Z,24.30
2019-05-17T17:53:29.200Z,25.72
2019-05-17T17:56:04.483Z,25.57
2019-05-17T17:58:39.787Z,28.77
2019-05-17T18:01:18.045Z,27.98
2019-05-17T18:03:53.459Z,29.32
2019-05-17T18:06:28.675Z,29.12
2019-05-17T18:09:10.195Z,27.02
2019-05-17T18:11:45.526Z,28.45
2019-05-17T18:14:21.445Z,25.85
2019-05-17T18:16:59.391Z,28.25
2019-05-17T18:19:37.874Z,27.67
2019-05-17T18:22:13.099Z,31.80
2019-05-17T18:24:48.579Z,29.18
2019-05-17T18:27:23.852Z,29.87
2019-05-17T18:30:01.238Z,28.38
2019-05-17T18:32:38.885Z,34.83
2019-05-17T18:35:14.270Z,34.27
2019-05-17T18:37:50.436Z,32.90
2019-05-17T18:40:27.052Z,35.25
2019-05-17T18:43:05.946Z,29.12
2019-05-17T18:45:41.422Z,26.30
2019-05-17T18:48:16.987Z,28.95
2019-05-17T18:50:52.344Z,30.52
2019-05-17T18:53:27.712Z,35.55
2019-05-17T18:56:03.198Z,35.83
2019-05-17T18:58:39.349Z,32.20
2019-05-17T19:01:16.241Z,36.30
2019-05-17T19:03:51.531Z,35.15
2019-05-17T19:06:28.240Z,34.83
2019-05-17T19:09:05.351Z,38.30
2019-05-17T19:11:40.932Z,40.35
2019-05-17T19:14:16.159Z,37.67
2019-05-17T19:16:51.606Z,33.63
2019-05-17T19:19:27.889Z,37.90
2019-05-17T19:22:03.195Z,36.28
2019-05-17T19:24:38.399Z,40.98
2019-05-17T19:27:13.728Z,38.28
2019-05-17T19:29:49.032Z,41.02
2019-05-17T19:32:24.340Z,41.05
2019-05-17T19:34:59.561Z,42.33
2019-05-17T19:37:35.029Z,38.45
2019-05-17T19:40:10.735Z,38.65
2019-05-17T19:42:46.303Z,46.75
2019-05-17T19:45:21.797Z,43.08
2019-05-17T19:47:57.056Z,48.65
2019-05-17T19:50:32.496Z,48.68
2019-05-17T19:53:08.797Z,50.55
2019-05-17T19:55:44.156Z,48.35
2019-05-17T19:58:26.050Z,51.92
2019-05-17T20:01:01.488Z,54.45
2019-05-17T20:03:36.780Z,59.85
2019-05-17T20:06:12.265Z,50.80
2019-05-17T20:08:47.801Z,52.48
2019-05-17T20:11:34.063Z,52.03
2019-05-17T20:13:59.826Z,57.45
2019-05-17T20:16:35.100Z,64.80
2019-05-17T20:19:10.412Z,55.08
2019-05-17T20:21:45.728Z,55.12
2019-05-17T20:24:21.148Z,57.58
2019-05-17T20:26:56.470Z,56.90
2019-05-17T20:29:31.794Z,59.15
2019-05-17T20:32:07.136Z,68.35
2019-05-17T20:34:42.453Z,67.55
2019-05-17T20:37:25.134Z,67.32
2019-05-17T20:40:00.454Z,65.60
2019-05-17T20:42:36.127Z,65.32
2019-05-17T20:45:11.518Z,66.12
2019-05-17T20:47:46.821Z,71.37
2019-05-17T20:50:22.154Z,74.35
2019-05-17T20:52:57.589Z,70.55
2019-05-17T20:55:32.919Z,63.75
2019-05-17T20:58:08.269Z,75.12
2019-05-17T21:00:43.706Z,67.70
2019-05-17T21:03:18.991Z,73.02
2019-05-17T21:05:54.317Z,61.92
2019-05-17T21:08:29.535Z,66.62
2019-05-17T21:11:04.842Z,64.50
2019-05-17T21:13:40.170Z,74.87
2019-05-17T21:16:15.448Z,72.55
2019-05-17T21:18:50.734Z,71.82
2019-05-17T21:21:26.002Z,67.00
2019-05-17T21:24:01.360Z,64.15
2019-05-17T21:26:39.440Z,67.65
2019-05-17T21:29:14.660Z,71.37
2019-05-17T21:31:49.946Z,74.47
2019-05-17T21:34:25.165Z,68.20
2019-05-17T21:37:00.506Z,65.97
2019-05-17T21:39:35.788Z,70.65
2019-05-17T21:42:10.997Z,80.00
2019-05-17T21:44:46.204Z,78.85
2019-05-17T21:47:22.782Z,84.83
2019-05-17T21:49:58.012Z,76.90
2019-05-17T21:52:33.301Z,82.08
2019-05-17T21:55:10.276Z,84.28
2019-05-17T21:57:45.622Z,83.35
2019-05-17T22:01:00.883Z,84.32
2019-05-17T22:03:36.297Z,86.12
2019-05-17T22:06:12.477Z,84.15
2019-05-17T22:08:47.792Z,90.72
2019-05-17T22:11:23.098Z,100.55
2019-05-17T22:13:58.505Z,99.95
2019-05-17T22:16:34.928Z,97.82
2019-05-17T22:19:10.700Z,91.67
2019-05-17T22:21:54.399Z,86.22
2019-05-17T22:24:31.267Z,96.45
2019-05-17T22:27:08.095Z,100.30
2019-05-17T22:29:43.495Z,96.22
2019-05-17T22:32:18.768Z,96.12
2019-05-17T22:34:55.028Z,94.92
2019-05-17T22:37:30.339Z,89.00
2019-05-17T22:40:18.969Z,99.90
2019-05-17T22:42:54.260Z,106.87
2019-05-17T22:45:29.655Z,115.97
2019-05-17T22:48:04.944Z,115.08
2019-05-17T22:50:40.264Z,104.23
2019-05-17T22:53:15.478Z,113.62
2019-05-17T22:55:50.875Z,106.55
2019-05-17T22:58:26.174Z,107.58
2019-05-17T23:01:01.421Z,101.12
2019-05-17T23:03:36.679Z,110.50
2019-05-17T23:06:12.286Z,113.75
2019-05-17T23:08:47.617Z,117.20
2019-05-17T23:11:22.951Z,140.10
2019-05-17T23:13:58.400Z,130.03
2019-05-17T23:16:33.639Z,119.95
2019-05-17T23:19:09.469Z,128.68
2019-05-17T23:21:49.476Z,125.25
2019-05-17T23:24:29.738Z,132.00
2019-05-17T23:27:04.988Z,150.00
2019-05-17T23:29:41.237Z,134.22
2019-05-17T23:32:16.606Z,117.03
2019-05-17T23:34:51.842Z,128.10
2019-05-17T23:37:27.109Z,128.40
2019-05-17T23:40:02.335Z,137.12
2019-05-17T23:42:37.624Z,137.25
2019-05-17T23:45:13.013Z,116.97
2019-05-17T23:47:48.300Z,121.65
2019-05-17T23:50:23.575Z,108.05
2019-05-17T23:52:58.827Z,115.62
2019-05-17T23:55:34.146Z,114.95
2019-05-17T23:58:09.454Z,122.78
